createdAt,value
2023-05-13T00:01:58.292Z,10.81
2023-05-13T00:04:59.858Z,10.85
2023-05-13T00:08:02.617Z,10.88
2023-05-13T00:11:04.393Z,10.86
2023-05-13T00:14:09.849Z,10.91
2023-05-13T00:17:11.498Z,10.91
2023-05-13T00:20:13.085Z,10.96
2023-05-13T00:23:14.705Z,10.99
2023-05-13T00:26:16.415Z,11.02
2023-05-13T00:29:19.806Z,11.00
2023-05-13T00:32:22.693Z,10.99
2023-05-13T00:35:24.549Z,11.01
2023-05-13T00:38:26.143Z,11.03
2023-05-13T00:41:27.682Z,11.05
2023-05-13T00:44:29.274Z,11.04
2023-05-13T00:47:31.220Z,11.15
2023-05-13T00:50:33.998Z,11.18
2023-05-13T00:53:36.359Z,11.11
2023-05-13T00:56:39.275Z,11.06
2023-05-13T00:59:40.877Z,10.93
2023-05-13T01:03:13.005Z,10.88
2023-05-13T01:06:21.599Z,10.84
2023-05-13T01:09:41.425Z,10.84
2023-05-13T01:12:45.793Z,10.84
2023-05-13T01:15:57.022Z,10.79
2023-05-13T01:19:24.925Z,10.44
2023-05-13T01:22:27.817Z,10.52
2023-05-13T01:25:30.069Z,10.56
2023-05-13T01:28:32.755Z,10.52
2023-05-13T01:31:35.693Z,10.44
2023-05-13T01:34:39.508Z,10.45
2023-05-13T01:37:42.471Z,10.26
2023-05-13T01:40:44.828Z,10.26
2023-05-13T01:43:46.614Z,10.20
2023-05-13T01:46:50.577Z,10.14
2023-05-13T01:49:53.189Z,10.05
2023-05-13T01:52:55.023Z,10.10
2023-05-13T01:55:56.968Z,10.06
2023-05-13T01:58:58.847Z,10.00
2023-05-13T02:02:00.553Z,9.96
2023-05-13T02:05:02.108Z,9.88
2023-05-13T02:08:04.606Z,9.94
2023-05-13T02:11:06.363Z,9.93
2023-05-13T02:14:08.039Z,9.97
2023-05-13T02:17:09.648Z,9.88
2023-05-13T02:20:12.425Z,9.84
2023-05-13T02:23:15.073Z,9.76
2023-05-13T02:26:16.633Z,9.80
2023-05-13T02:29:18.287Z,9.78
2023-05-13T02:32:19.927Z,9.71
2023-05-13T02:35:22.540Z,9.72
2023-05-13T02:38:24.523Z,9.64
2023-05-13T02:41:26.507Z,9.58
2023-05-13T02:44:28.495Z,9.55
2023-05-13T02:47:30.336Z,9.62
2023-05-13T02:50:37.078Z,9.48
2023-05-13T02:53:39.376Z,9.58
2023-05-13T02:56:42.942Z,9.59
2023-05-13T02:59:44.724Z,9.62
2023-05-13T03:02:46.411Z,9.60
2023-05-13T03:05:47.980Z,9.62
2023-05-13T03:08:49.689Z,9.48
2023-05-13T03:11:51.372Z,9.52
2023-05-13T03:14:52.889Z,9.47
2023-05-13T03:17:54.556Z,9.42
2023-05-13T03:20:56.376Z,9.35
2023-05-13T03:23:58.118Z,9.40
2023-05-13T03:27:00.182Z,9.52
2023-05-13T03:30:02.298Z,9.57
2023-05-13T03:33:05.051Z,9.57
2023-05-13T03:36:09.740Z,9.45
2023-05-13T03:39:11.904Z,9.37
2023-05-13T03:42:14.131Z,9.37
2023-05-13T03:45:16.106Z,9.31
2023-05-13T03:48:22.315Z,9.29
2023-05-13T03:51:23.977Z,9.30
2023-05-13T03:54:26.075Z,9.44
2023-05-13T03:57:27.646Z,9.49
2023-05-13T04:00:29.232Z,9.55
2023-05-13T04:03:31.390Z,9.59
2023-05-13T04:06:33.129Z,9.60
2023-05-13T04:09:34.770Z,9.69
2023-05-13T04:12:37.618Z,9.69
2023-05-13T04:15:39.329Z,9.69
2023-05-13T04:18:42.528Z,9.62
2023-05-13T04:21:44.112Z,9.64
2023-05-13T04:24:45.757Z,9.71
2023-05-13T04:27:50.287Z,9.65
2023-05-13T04:31:03.573Z,9.69
2023-05-13T04:34:07.204Z,9.71
2023-05-13T04:37:09.512Z,9.72
2023-05-13T04:40:11.628Z,9.77
2023-05-13T04:43:14.155Z,9.77
2023-05-13T04:46:22.052Z,9.83
2023-05-13T04:49:25.821Z,9.79
2023-05-13T04:52:28.111Z,9.90
2023-05-13T04:55:30.097Z,9.86
2023-05-13T04:58:31.877Z,9.87
2023-05-13T05:01:33.833Z,10.00
2023-05-13T05:04:35.580Z,9.98
2023-05-13T05:07:42.517Z,9.98
2023-05-13T05:10:44.117Z,9.96
2023-05-13T05:13:46.949Z,9.95
2023-05-13T05:16:52.707Z,10.01
2023-05-13T05:19:55.352Z,10.10
2023-05-13T05:22:57.104Z,10.07
2023-05-13T05:26:11.273Z,10.18
2023-05-13T05:29:15.404Z,10.18
2023-05-13T05:32:19.440Z,10.19
2023-05-13T05:35:21.144Z,10.18
2023-05-13T05:38:25.376Z,10.11
2023-05-13T05:41:28.575Z,10.11
2023-05-13T05:44:31.252Z,10.12
2023-05-13T05:47:32.988Z,10.25
2023-05-13T05:50:35.114Z,10.32
2023-05-13T05:53:40.882Z,10.37
2023-05-13T05:56:42.778Z,10.45
2023-05-13T05:59:44.423Z,10.51
2023-05-13T06:02:49.002Z,10.57
2023-05-13T06:05:51.399Z,10.62
2023-05-13T06:08:53.611Z,10.74
2023-05-13T06:11:55.346Z,10.77
2023-05-13T06:14:58.568Z,10.85
2023-05-13T06:18:04.652Z,10.95
2023-05-13T06:21:08.911Z,11.05
2023-05-13T06:24:10.554Z,11.00
2023-05-13T06:27:12.287Z,11.19
2023-05-13T06:30:14.297Z,11.32
2023-05-13T06:33:17.438Z,11.44
2023-05-13T06:36:19.026Z,11.47
2023-05-13T06:39:21.125Z,11.61
2023-05-13T06:42:25.043Z,11.64
2023-05-13T06:45:34.126Z,11.79
2023-05-13T06:48:36.127Z,11.87
2023-05-13T06:51:39.397Z,11.85
2023-05-13T06:54:40.919Z,11.90
2023-05-13T06:57:46.736Z,11.97
2023-05-13T07:00:48.525Z,11.99
2023-05-13T07:03:50.121Z,12.03
2023-05-13T07:06:51.787Z,12.03
2023-05-13T07:09:53.353Z,12.04
2023-05-13T07:12:54.880Z,12.09
2023-05-13T07:15:56.534Z,12.24
2023-05-13T07:18:58.120Z,12.30
2023-05-13T07:21:59.712Z,12.30
2023-05-13T07:25:01.519Z,12.34
2023-05-13T07:28:03.472Z,12.36
2023-05-13T07:31:05.877Z,12.35
2023-05-13T07:34:07.480Z,12.39
2023-05-13T07:37:09.382Z,12.41
2023-05-13T07:40:11.338Z,12.48
2023-05-13T07:43:13.798Z,12.50
2023-05-13T07:46:15.553Z,12.57
2023-05-13T07:49:17.116Z,12.57
2023-05-13T07:52:18.731Z,12.63
2023-05-13T07:55:20.574Z,12.73
2023-05-13T07:58:22.555Z,12.75
2023-05-13T08:01:24.154Z,12.87
2023-05-13T08:04:26.855Z,12.99
2023-05-13T08:07:28.500Z,13.04
2023-05-13T08:10:30.918Z,13.08
2023-05-13T08:13:32.511Z,13.18
2023-05-13T08:16:37.212Z,13.22
2023-05-13T08:19:38.929Z,13.35
2023-05-13T08:22:40.744Z,13.40
2023-05-13T08:25:42.421Z,13.60
2023-05-13T08:28:44.401Z,13.83
2023-05-13T08:31:46.125Z,13.93
2023-05-13T08:34:48.137Z,14.12
2023-05-13T08:37:49.664Z,14.18
2023-05-13T08:40:51.190Z,14.41
2023-05-13T08:43:57.089Z,14.48
2023-05-13T08:47:29.873Z,14.67
2023-05-13T08:50:32.182Z,14.74
2023-05-13T08:53:35.614Z,14.70
2023-05-13T08:56:37.713Z,14.87
2023-05-13T08:59:39.247Z,14.88
2023-05-13T09:02:44.332Z,14.87
2023-05-13T09:05:46.950Z,15.07
2023-05-13T09:08:48.714Z,14.90
2023-05-13T09:11:51.550Z,15.11
2023-05-13T09:14:53.090Z,15.12
2023-05-13T09:18:05.300Z,15.28
2023-05-13T09:21:43.788Z,15.49
2023-05-13T09:24:54.614Z,15.66
2023-05-13T09:27:59.188Z,15.69
2023-05-13T09:31:00.864Z,15.80
2023-05-13T09:34:02.566Z,16.26
2023-05-13T09:37:09.036Z,16.47
2023-05-13T09:40:16.215Z,16.27
2023-05-13T09:43:20.735Z,16.29
2023-05-13T09:46:22.429Z,16.48
2023-05-13T09:49:26.820Z,16.61
2023-05-13T09:52:30.849Z,16.57
2023-05-13T09:55:33.935Z,16.42
2023-05-13T09:58:36.021Z,16.47
2023-05-13T10:01:40.558Z,16.28
2023-05-13T10:04:42.997Z,16.22
2023-05-13T10:07:44.786Z,15.85
2023-05-13T10:10:50.195Z,15.79
2023-05-13T10:14:03.237Z,15.71
2023-05-13T10:17:05.825Z,15.93
2023-05-13T10:20:07.919Z,15.94
2023-05-13T10:23:10.511Z,16.27
2023-05-13T10:26:12.921Z,16.37
2023-05-13T10:29:14.958Z,16.26
2023-05-13T10:32:16.671Z,16.35
2023-05-13T10:35:20.579Z,16.22
2023-05-13T10:38:46.725Z,16.40
2023-05-13T10:42:19.993Z,16.70
2023-05-13T10:45:26.362Z,16.68
2023-05-13T10:48:43.210Z,17.08
2023-05-13T10:51:49.484Z,16.98
2023-05-13T10:55:02.400Z,16.91
2023-05-13T10:58:09.868Z,16.86
2023-05-13T11:01:34.707Z,16.51
2023-05-13T11:05:00.216Z,16.51
2023-05-13T11:08:01.844Z,16.16
2023-05-13T11:11:03.512Z,16.61
2023-05-13T11:14:19.246Z,16.85
2023-05-13T11:17:20.995Z,16.84
2023-05-13T11:20:24.687Z,17.01
2023-05-13T11:23:26.404Z,17.22
2023-05-13T11:26:44.176Z,17.01
2023-05-13T11:29:50.462Z,16.85
2023-05-13T11:32:56.031Z,17.02
2023-05-13T11:35:57.727Z,17.51
2023-05-13T11:39:06.996Z,17.57
2023-05-13T11:42:10.713Z,17.56
2023-05-13T11:45:14.969Z,17.42
2023-05-13T11:48:23.809Z,17.61
2023-05-13T11:51:25.589Z,17.86
2023-05-13T11:54:28.006Z,17.69
2023-05-13T11:57:34.359Z,17.98
2023-05-13T12:00:36.017Z,18.73
2023-05-13T12:03:37.745Z,18.67
2023-05-13T12:06:49.151Z,18.79
2023-05-13T12:09:52.924Z,18.18
2023-05-13T12:12:55.145Z,17.92
2023-05-13T12:15:56.999Z,17.69
2023-05-13T12:19:06.445Z,17.93
2023-05-13T12:22:08.858Z,18.95
2023-05-13T12:25:35.709Z,18.78
2023-05-13T12:28:37.201Z,18.32
2023-05-13T12:31:38.952Z,18.67
2023-05-13T12:34:40.762Z,19.27
2023-05-13T12:37:42.477Z,19.72
2023-05-13T12:40:48.419Z,19.29
2023-05-13T12:43:50.443Z,19.31
2023-05-13T12:46:54.197Z,18.44
2023-05-13T12:50:00.994Z,18.69
2023-05-13T12:53:02.823Z,19.53
2023-05-13T12:56:04.876Z,18.83
2023-05-13T12:59:06.572Z,18.42
2023-05-13T13:02:08.136Z,18.37
2023-05-13T13:05:09.963Z,17.95
2023-05-13T13:08:11.563Z,17.97
2023-05-13T13:11:18.720Z,18.17
2023-05-13T13:14:20.656Z,18.41
2023-05-13T13:17:22.266Z,18.31
2023-05-13T13:20:24.159Z,18.19
2023-05-13T13:23:25.915Z,18.20
2023-05-13T13:26:27.696Z,18.03
2023-05-13T13:29:29.323Z,17.96
2023-05-13T13:32:31.011Z,18.04
2023-05-13T13:35:32.753Z,18.17
2023-05-13T13:38:34.322Z,18.07
2023-05-13T13:41:35.963Z,17.65
2023-05-13T13:44:39.430Z,17.73
2023-05-13T13:47:41.692Z,17.49
2023-05-13T13:50:45.376Z,17.53
2023-05-13T13:53:49.491Z,17.50
2023-05-13T13:56:52.717Z,17.53
2023-05-13T13:59:54.291Z,17.70
2023-05-13T14:02:56.570Z,17.58
2023-05-13T14:05:58.337Z,17.33
2023-05-13T14:08:59.884Z,17.49
2023-05-13T14:12:01.721Z,17.29
2023-05-13T14:15:03.705Z,17.50
2023-05-13T14:18:08.795Z,17.56
2023-05-13T14:21:10.434Z,17.74
2023-05-13T14:24:12.255Z,17.78
2023-05-13T14:27:14.377Z,18.01
2023-05-13T14:30:15.988Z,18.18
2023-05-13T14:33:17.594Z,17.92
2023-05-13T14:36:20.753Z,17.80
2023-05-13T14:39:22.405Z,17.87
2023-05-13T14:42:23.964Z,18.46
2023-05-13T14:45:25.542Z,18.55
2023-05-13T14:48:27.509Z,18.82
2023-05-13T14:51:29.289Z,19.45
2023-05-13T14:54:35.608Z,19.82
2023-05-13T14:57:37.392Z,18.76
2023-05-13T15:00:39.672Z,18.32
2023-05-13T15:03:41.463Z,16.83
2023-05-13T15:06:43.043Z,17.05
2023-05-13T15:09:44.568Z,17.53
2023-05-13T15:12:46.241Z,16.96
2023-05-13T15:15:47.844Z,18.07
2023-05-13T15:18:52.611Z,17.78
2023-05-13T15:21:54.263Z,17.69
2023-05-13T15:24:55.848Z,17.86
2023-05-13T15:27:57.392Z,18.19
2023-05-13T15:30:59.002Z,17.85
2023-05-13T15:34:00.696Z,17.83
2023-05-13T15:37:03.592Z,18.03
2023-05-13T15:40:05.745Z,18.54
2023-05-13T15:43:07.295Z,18.04
2023-05-13T15:46:08.935Z,17.74
2023-05-13T15:49:10.586Z,17.54
2023-05-13T15:52:12.360Z,17.19
2023-05-13T15:55:14.432Z,17.88
2023-05-13T15:58:15.980Z,18.05
2023-05-13T16:01:17.996Z,17.95
2023-05-13T16:04:19.748Z,18.41
2023-05-13T16:07:23.884Z,18.13
2023-05-13T16:10:25.529Z,18.15
2023-05-13T16:13:27.168Z,18.55
2023-05-13T16:16:28.806Z,18.63
2023-05-13T16:19:30.818Z,18.59
2023-05-13T16:22:38.236Z,18.81
2023-05-13T16:25:40.085Z,18.74
2023-05-13T16:28:41.757Z,18.12
2023-05-13T16:31:43.453Z,17.75
2023-05-13T16:34:45.043Z,17.50
2023-05-13T16:37:46.836Z,17.63
2023-05-13T16:40:48.671Z,17.28
2023-05-13T16:43:50.314Z,17.17
2023-05-13T16:46:51.927Z,16.87
2023-05-13T16:49:54.458Z,16.99
2023-05-13T16:52:56.992Z,16.57
2023-05-13T16:55:58.663Z,17.26
2023-05-13T16:59:00.323Z,16.85
2023-05-13T17:02:01.981Z,17.37
2023-05-13T17:05:04.846Z,17.47
2023-05-13T17:08:06.535Z,17.71
2023-05-13T17:11:15.818Z,17.53
2023-05-13T17:14:17.668Z,16.92
2023-05-13T17:17:19.395Z,16.48
2023-05-13T17:20:21.526Z,16.22
2023-05-13T17:23:23.752Z,16.09
2023-05-13T17:26:26.253Z,16.02
2023-05-13T17:29:27.794Z,15.97
2023-05-13T17:32:29.595Z,15.92
2023-05-13T17:35:31.317Z,15.86
2023-05-13T17:38:32.939Z,15.84
2023-05-13T17:41:34.629Z,15.97
2023-05-13T17:44:36.263Z,15.91
2023-05-13T17:47:37.934Z,16.00
2023-05-13T17:50:39.552Z,16.04
2023-05-13T17:53:41.194Z,16.01
2023-05-13T17:56:42.753Z,15.93
2023-05-13T17:59:44.311Z,15.75
2023-05-13T18:02:46.039Z,15.85
2023-05-13T18:05:48.239Z,15.68
2023-05-13T18:08:49.856Z,15.53
2023-05-13T18:11:51.764Z,15.46
2023-05-13T18:14:53.371Z,15.39
2023-05-13T18:17:55.093Z,15.20
2023-05-13T18:20:58.465Z,15.12
2023-05-13T18:24:00.242Z,15.07
2023-05-13T18:27:01.870Z,15.01
2023-05-13T18:30:03.683Z,14.98
2023-05-13T18:33:05.441Z,14.79
2023-05-13T18:36:08.751Z,14.61
2023-05-13T18:39:11.477Z,14.51
2023-05-13T18:42:13.165Z,14.54
2023-05-13T18:45:14.788Z,14.35
2023-05-13T18:48:16.428Z,14.26
2023-05-13T18:51:18.021Z,14.16
2023-05-13T18:54:22.354Z,14.05
2023-05-13T18:57:25.184Z,13.93
2023-05-13T19:00:26.982Z,13.87
2023-05-13T19:03:28.798Z,13.79
2023-05-13T19:06:30.593Z,13.70
2023-05-13T19:09:34.197Z,13.69
2023-05-13T19:12:35.739Z,13.72
2023-05-13T19:15:37.535Z,13.70
2023-05-13T19:18:39.121Z,13.70
2023-05-13T19:21:40.763Z,13.61
2023-05-13T19:24:42.355Z,13.63
2023-05-13T19:27:44.267Z,13.53
2023-05-13T19:30:46.472Z,13.42
2023-05-13T19:33:48.674Z,13.43
2023-05-13T19:36:50.438Z,13.36
2023-05-13T19:39:52.126Z,13.21
2023-05-13T19:42:54.040Z,13.26
2023-05-13T19:45:57.495Z,13.25
2023-05-13T19:48:59.002Z,13.20
2023-05-13T19:52:00.730Z,13.16
2023-05-13T19:55:04.390Z,13.06
2023-05-13T19:58:06.589Z,12.82
2023-05-13T20:01:09.355Z,12.66
2023-05-13T20:04:17.570Z,12.54
2023-05-13T20:07:22.455Z,12.44
2023-05-13T20:10:24.351Z,12.39
2023-05-13T20:13:28.121Z,12.32
2023-05-13T20:16:32.138Z,12.23
2023-05-13T20:19:36.954Z,12.27
2023-05-13T20:22:39.415Z,12.08
2023-05-13T20:25:45.066Z,11.84
2023-05-13T20:28:47.885Z,11.83
2023-05-13T20:31:49.926Z,11.78
2023-05-13T20:34:54.844Z,11.74
2023-05-13T20:37:57.334Z,11.74
2023-05-13T20:40:59.292Z,11.70
2023-05-13T20:44:01.119Z,11.63
2023-05-13T20:47:03.609Z,11.63
2023-05-13T20:50:05.871Z,11.72
2023-05-13T20:53:07.756Z,11.82
2023-05-13T20:56:12.333Z,11.85
2023-05-13T20:59:14.018Z,11.82
2023-05-13T21:02:16.029Z,11.77
2023-05-13T21:05:18.451Z,11.74
2023-05-13T21:08:21.239Z,11.73
2023-05-13T21:11:22.962Z,11.77
2023-05-13T21:14:24.572Z,11.80
2023-05-13T21:17:26.545Z,11.79
2023-05-13T21:20:28.227Z,11.78
2023-05-13T21:23:33.362Z,11.84
2023-05-13T21:26:35.059Z,11.78
2023-05-13T21:29:36.671Z,11.81
2023-05-13T21:32:38.225Z,11.81
2023-05-13T21:35:39.797Z,11.92
2023-05-13T21:38:41.459Z,11.80
2023-05-13T21:41:44.279Z,11.71
2023-05-13T21:44:45.998Z,11.82
2023-05-13T21:47:47.593Z,11.79
2023-05-13T21:50:49.124Z,11.82
2023-05-13T21:53:50.725Z,11.79
2023-05-13T21:56:52.409Z,11.84
2023-05-13T21:59:54.076Z,11.97
2023-05-13T22:03:00.618Z,12.02
2023-05-13T22:06:02.868Z,12.13
2023-05-13T22:09:04.531Z,12.08
2023-05-13T22:12:06.357Z,12.11
2023-05-13T22:15:08.620Z,11.98
2023-05-13T22:18:10.500Z,12.08
2023-05-13T22:21:12.180Z,12.16
2023-05-13T22:24:14.011Z,12.17
2023-05-13T22:27:16.530Z,12.16
2023-05-13T22:30:18.585Z,12.24
2023-05-13T22:33:20.227Z,12.23
2023-05-13T22:36:21.867Z,12.15
2023-05-13T22:39:25.160Z,11.89
2023-05-13T22:42:27.292Z,11.55
2023-05-13T22:45:28.981Z,11.53
2023-05-13T22:48:30.692Z,11.50
2023-05-13T22:51:32.799Z,11.46
2023-05-13T22:54:34.474Z,11.46
2023-05-13T22:57:36.109Z,11.46
2023-05-13T23:00:37.632Z,11.47
2023-05-13T23:03:39.240Z,11.44
2023-05-13T23:06:41.215Z,11.31
2023-05-13T23:09:42.834Z,11.29
2023-05-13T23:12:44.372Z,11.25
2023-05-13T23:15:46.048Z,11.25
2023-05-13T23:18:47.648Z,11.18
2023-05-13T23:21:49.288Z,11.30
2023-05-13T23:24:50.868Z,11.29
2023-05-13T23:27:52.412Z,11.23
2023-05-13T23:30:54.384Z,11.19
2023-05-13T23:33:56.081Z,11.21
2023-05-13T23:36:57.613Z,11.11
2023-05-13T23:39:59.476Z,11.02
2023-05-13T23:43:01.088Z,10.91
2023-05-13T23:46:02.748Z,10.69
2023-05-13T23:49:04.365Z,10.81
2023-05-13T23:52:06.286Z,10.80
2023-05-13T23:55:08.352Z,10.68
2023-05-13T23:58:10.019Z,10.69
